Time;durP1;ratioP1;P1;durP2;ratioP2;P2;SDS_P1;SDS_P2;PMS_P1;PMS_P2;Temp;Humidity;BMP_temperature;BMP_pressure;BME280_temperature;BME280_humidity;BME280_pressure;Samples;Min_cycle;Max_cycle;Signal;HPM_P1;HPM_P2
2022/05/22 00:02:25;;;;;;;;;;;21.00;45.30;;;;;;4924711;28;19927;-58
2022/05/22 00:04:52;;;;;;;;;;;21.10;45.40;;;;;;4923394;28;19971;-58
2022/05/22 00:07:18;;;;;;;;;;;21.10;45.30;;;;;;4920995;28;19927;-60
2022/05/22 00:09:45;;;;;;;;;;;21.10;45.40;;;;;;4936253;28;19941;-59
2022/05/22 00:12:12;;;;;;;;;;;21.10;45.40;;;;;;4918833;28;19926;-58
2022/05/22 00:14:39;;;;;;;;;;;21.10;45.40;;;;;;4923891;29;19981;-60
2022/05/22 00:17:06;;;;;;;;;;;21.10;45.40;;;;;;4932056;29;19934;-59
2022/05/22 00:19:34;;;;;;;;;;;21.10;45.30;;;;;;4932175;28;20288;-59
2022/05/22 00:22:01;;;;;;;;;;;21.10;45.30;;;;;;4932319;28;19933;-58
2022/05/22 00:24:28;;;;;;;;;;;21.10;45.40;;;;;;4946475;28;19953;-58
2022/05/22 00:26:55;;;;;;;;;;;21.10;45.30;;;;;;4938497;28;19927;-59
2022/05/22 00:29:21;;;;;;;;;;;21.10;45.30;;;;;;4917819;28;19927;-60
2022/05/22 00:31:48;;;;;;;;;;;21.10;45.30;;;;;;4942774;28;19927;-58
2022/05/22 00:34:15;;;;;;;;;;;21.10;45.40;;;;;;4941882;28;20017;-58
2022/05/22 00:36:43;;;;;;;;;;;21.10;45.30;;;;;;4928866;29;20020;-60
2022/05/22 00:39:10;;;;;;;;;;;21.10;45.30;;;;;;4917852;28;20009;-60
2022/05/22 00:41:37;;;;;;;;;;;21.10;45.40;;;;;;4940232;28;19928;-57
2022/05/22 00:44:04;;;;;;;;;;;21.10;45.30;;;;;;4913975;28;19981;-58
2022/05/22 00:46:30;;;;;;;;;;;21.10;45.30;;;;;;4945109;28;19984;-59
2022/05/22 00:48:59;;;;;;;;;;;21.10;45.30;;;;;;4930034;28;19931;-58
2022/05/22 00:51:26;;;;;;;;;;;21.10;45.40;;;;;;4940894;28;20373;-58
2022/05/22 00:53:55;;;;;;;;;;;21.10;45.40;;;;;;4930880;28;20010;-59
2022/05/22 00:56:22;;;;;;;;;;;21.10;45.40;;;;;;4929706;28;19931;-58
2022/05/22 00:58:49;;;;;;;;;;;21.10;45.40;;;;;;4947180;28;20018;-60
2022/05/22 01:01:15;;;;;;;;;;;21.10;45.30;;;;;;4920026;29;19982;-59
2022/05/22 01:03:42;;;;;;;;;;;21.10;45.40;;;;;;4929524;29;19935;-58
2022/05/22 01:06:09;;;;;;;;;;;21.10;45.40;;;;;;4929288;28;19934;-57
2022/05/22 01:08:37;;;;;;;;;;;21.10;45.40;;;;;;4930686;28;19926;-59
2022/05/22 01:11:05;;;;;;;;;;;21.10;45.30;;;;;;4926451;28;19981;-58
2022/05/22 01:13:33;;;;;;;;;;;21.10;45.40;;;;;;4945623;28;20030;-58
2022/05/22 01:15:59;;;;;;;;;;;21.10;45.30;;;;;;4942968;28;19928;-58
2022/05/22 01:18:26;;;;;;;;;;;21.10;45.40;;;;;;4945538;28;19934;-56
2022/05/22 01:20:53;;;;;;;;;;;21.10;45.40;;;;;;4927939;28;20013;-57
2022/05/22 01:23:22;;;;;;;;;;;21.10;45.40;;;;;;4942627;28;19926;-59
2022/05/22 01:25:49;;;;;;;;;;;21.10;45.30;;;;;;4929197;28;19982;-58
2022/05/22 01:28:16;;;;;;;;;;;21.10;45.30;;;;;;4947147;28;19954;-58
2022/05/22 01:30:43;;;;;;;;;;;21.10;45.30;;;;;;4937976;28;19927;-58
2022/05/22 01:33:09;;;;;;;;;;;21.10;45.40;;;;;;4929481;28;19934;-59
2022/05/22 01:35:36;;;;;;;;;;;21.10;45.30;;;;;;4930640;28;19962;-58
2022/05/22 01:38:03;;;;;;;;;;;21.10;45.30;;;;;;4928434;28;19937;-56
2022/05/22 01:40:33;;;;;;;;;;;21.10;45.40;;;;;;4928690;29;19931;-59
2022/05/22 01:43:00;;;;;;;;;;;21.10;45.30;;;;;;4942831;28;19992;-59
2022/05/22 01:45:26;;;;;;;;;;;21.10;45.30;;;;;;4940247;28;20376;-57
2022/05/22 01:47:53;;;;;;;;;;;21.10;45.30;;;;;;4913149;28;19934;-60
2022/05/22 01:50:23;;;;;;;;;;;21.10;45.30;;;;;;4928361;28;19960;-58
2022/05/22 01:52:50;;;;;;;;;;;21.10;45.30;;;;;;4923482;28;20380;-58
2022/05/22 01:55:16;;;;;;;;;;;21.10;45.30;;;;;;4937266;28;19958;-58
2022/05/22 01:57:45;;;;;;;;;;;21.00;45.20;;;;;;4946654;28;19933;-58
2022/05/22 02:00:12;;;;;;;;;;;21.10;45.30;;;;;;4929669;28;19939;-58
2022/05/22 02:02:39;;;;;;;;;;;21.10;45.30;;;;;;4918649;28;19970;-58
2022/05/22 02:05:06;;;;;;;;;;;21.10;45.30;;;;;;4939361;28;20030;-58
2022/05/22 02:10:16;;;;;;;;;;;21.10;45.30;;;;;;4916545;29;19938;-58
2022/05/22 02:12:44;;;;;;;;;;;21.10;45.30;;;;;;4927477;28;20356;-58
2022/05/22 02:15:11;;;;;;;;;;;21.10;45.30;;;;;;4930648;28;19977;-58
2022/05/22 02:17:38;;;;;;;;;;;21.00;45.20;;;;;;4941941;28;19989;-58
2022/05/22 02:20:05;;;;;;;;;;;21.10;45.20;;;;;;4931334;28;20029;-58
2022/05/22 02:22:32;;;;;;;;;;;21.00;45.20;;;;;;4930244;28;19931;-59
2022/05/22 02:24:59;;;;;;;;;;;21.00;45.20;;;;;;4929429;28;19933;-60
2022/05/22 02:27:25;;;;;;;;;;;21.10;45.20;;;;;;4931178;28;20327;-59
2022/05/22 02:29:53;;;;;;;;;;;21.10;45.20;;;;;;4946862;28;19996;-58
2022/05/22 02:32:20;;;;;;;;;;;21.10;45.20;;;;;;4926386;28;20309;-58
2022/05/22 02:34:47;;;;;;;;;;;21.10;45.20;;;;;;4935667;28;19970;-59
2022/05/22 02:37:13;;;;;;;;;;;21.10;45.20;;;;;;4930612;29;20021;-59
2022/05/22 02:39:40;;;;;;;;;;;21.10;45.20;;;;;;4930768;28;20015;-58
2022/05/22 02:42:07;;;;;;;;;;;21.10;45.20;;;;;;4931476;28;19953;-59
2022/05/22 02:44:34;;;;;;;;;;;21.10;45.20;;;;;;4954904;28;21074;-59
2022/05/22 02:47:04;;;;;;;;;;;21.10;45.20;;;;;;4956686;28;20057;-58
2022/05/22 02:49:31;;;;;;;;;;;21.10;45.20;;;;;;4943614;28;19958;-58
2022/05/22 02:51:57;;;;;;;;;;;21.10;45.20;;;;;;4928197;28;19989;-59
2022/05/22 02:54:24;;;;;;;;;;;21.10;45.80;;;;;;4944456;28;19927;-58
2022/05/22 02:56:51;;;;;;;;;;;21.00;45.10;;;;;;4926535;28;20030;-58
2022/05/22 02:59:17;;;;;;;;;;;21.10;45.20;;;;;;4944861;28;20045;-59
2022/05/22 03:01:44;;;;;;;;;;;21.10;45.20;;;;;;4922695;29;20038;-58
2022/05/22 03:04:12;;;;;;;;;;;21.10;45.20;;;;;;4928898;28;19926;-58
2022/05/22 03:06:38;;;;;;;;;;;21.10;45.20;;;;;;4930395;29;19927;-58
2022/05/22 03:09:05;;;;;;;;;;;21.10;45.20;;;;;;4912357;28;19933;-57
2022/05/22 03:11:31;;;;;;;;;;;21.10;45.20;;;;;;4923229;28;19997;-57
2022/05/22 03:13:59;;;;;;;;;;;21.10;45.20;;;;;;4925557;28;20051;-59
2022/05/22 03:16:25;;;;;;;;;;;21.00;45.10;;;;;;4929658;29;20024;-58
2022/05/22 03:18:52;;;;;;;;;;;21.10;45.20;;;;;;4946378;28;20025;-58
2022/05/22 03:21:20;;;;;;;;;;;21.00;45.10;;;;;;4928014;28;20388;-59
2022/05/22 03:23:47;;;;;;;;;;;21.00;45.20;;;;;;4910992;28;20392;-58
2022/05/22 03:26:14;;;;;;;;;;;21.00;45.10;;;;;;4958573;28;19927;-58
2022/05/22 03:28:40;;;;;;;;;;;21.00;45.10;;;;;;4939797;28;19927;-60
2022/05/22 03:31:07;;;;;;;;;;;21.00;45.20;;;;;;4915994;28;19935;-58
2022/05/22 03:33:34;;;;;;;;;;;21.00;45.10;;;;;;4920762;28;19931;-59
2022/05/22 03:36:00;;;;;;;;;;;21.00;45.10;;;;;;4925011;28;19974;-58
2022/05/22 03:38:29;;;;;;;;;;;21.00;45.10;;;;;;4927611;28;19927;-59
2022/05/22 03:40:55;;;;;;;;;;;21.00;45.20;;;;;;4929400;28;19927;-59
2022/05/22 03:43:22;;;;;;;;;;;21.00;45.20;;;;;;4929468;28;19969;-59
2022/05/22 03:45:49;;;;;;;;;;;21.00;45.20;;;;;;4941247;28;19973;-57
2022/05/22 03:48:16;;;;;;;;;;;21.00;45.20;;;;;;4918778;28;19937;-58
2022/05/22 03:50:43;;;;;;;;;;;21.00;45.20;;;;;;4945905;28;20358;-59
2022/05/22 03:53:09;;;;;;;;;;;21.00;45.20;;;;;;4931136;29;20034;-60
2022/05/22 03:55:37;;;;;;;;;;;21.00;45.20;;;;;;4932544;28;19931;-59
2022/05/22 03:58:04;;;;;;;;;;;21.00;45.20;;;;;;4931599;28;19931;-59
2022/05/22 04:00:31;;;;;;;;;;;21.00;45.20;;;;;;4933507;29;19934;-58
2022/05/22 04:02:58;;;;;;;;;;;21.00;45.20;;;;;;4935324;28;19931;-58
2022/05/22 04:05:24;;;;;;;;;;;21.00;45.20;;;;;;4952737;28;19927;-58
2022/05/22 04:07:51;;;;;;;;;;;21.00;45.20;;;;;;4947458;28;20133;-60
2022/05/22 04:10:19;;;;;;;;;;;21.00;45.20;;;;;;4920918;28;19949;-58
2022/05/22 04:12:47;;;;;;;;;;;21.00;45.20;;;;;;4943576;28;19934;-59
2022/05/22 04:15:14;;;;;;;;;;;21.00;45.20;;;;;;4932313;28;19938;-58
2022/05/22 04:17:41;;;;;;;;;;;21.00;45.20;;;;;;4933130;29;19969;-57
2022/05/22 04:20:08;;;;;;;;;;;21.00;45.20;;;;;;4932509;28;19989;-59
2022/05/22 04:25:10;;;;;;;;;;;21.00;45.30;;;;;;4932795;29;20388;-59
2022/05/22 04:25:21;;;;;;;;;;;21.00;45.20;;;;;;4948763;28;19927;-59
2022/05/22 04:27:49;;;;;;;;;;;21.00;45.30;;;;;;4933838;29;19946;-59
2022/05/22 04:30:18;;;;;;;;;;;21.00;45.30;;;;;;4931676;28;20304;-59
2022/05/22 04:32:45;;;;;;;;;;;21.00;45.30;;;;;;4948264;28;20465;-58
2022/05/22 04:35:12;;;;;;;;;;;21.00;45.30;;;;;;4926599;29;19927;-59
2022/05/22 04:37:39;;;;;;;;;;;21.00;45.30;;;;;;4931548;28;19931;-59
2022/05/22 04:40:07;;;;;;;;;;;21.00;45.30;;;;;;4929694;29;20280;-58
2022/05/22 04:42:33;;;;;;;;;;;21.00;45.30;;;;;;4942112;28;20303;-57
2022/05/22 04:45:02;;;;;;;;;;;21.00;45.30;;;;;;4933720;29;19950;-59
2022/05/22 04:47:28;;;;;;;;;;;21.00;45.30;;;;;;4912880;28;19943;-59
2022/05/22 04:49:55;;;;;;;;;;;21.00;45.40;;;;;;4940505;28;19927;-58
2022/05/22 04:52:22;;;;;;;;;;;21.00;45.40;;;;;;4930847;29;20408;-59
2022/05/22 04:54:49;;;;;;;;;;;21.00;45.30;;;;;;4947240;28;19930;-58
2022/05/22 04:57:15;;;;;;;;;;;21.00;45.30;;;;;;4932784;28;20028;-59
2022/05/22 04:59:42;;;;;;;;;;;21.00;45.40;;;;;;4926381;28;20471;-59
2022/05/22 05:02:10;;;;;;;;;;;21.00;45.40;;;;;;4926926;28;19935;-58
2022/05/22 05:04:37;;;;;;;;;;;21.00;45.40;;;;;;4931616;28;19976;-60
2022/05/22 05:07:07;;;;;;;;;;;21.00;45.40;;;;;;4929917;28;19931;-60
2022/05/22 05:09:34;;;;;;;;;;;21.00;45.40;;;;;;4938022;28;19927;-59
2022/05/22 05:12:01;;;;;;;;;;;21.00;45.40;;;;;;4943647;28;20380;-59
2022/05/22 05:14:28;;;;;;;;;;;21.00;45.40;;;;;;4933147;28;19927;-58
2022/05/22 05:16:54;;;;;;;;;;;21.00;45.40;;;;;;4963193;28;19954;-59
2022/05/22 05:19:23;;;;;;;;;;;21.00;45.40;;;;;;4931861;28;19949;-59
2022/05/22 05:21:49;;;;;;;;;;;21.00;45.50;;;;;;4933147;28;19981;-57
2022/05/22 05:24:16;;;;;;;;;;;21.00;45.40;;;;;;4929763;28;19949;-58
2022/05/22 05:26:43;;;;;;;;;;;21.00;45.40;;;;;;4943969;28;19923;-59
2022/05/22 05:29:09;;;;;;;;;;;21.00;45.40;;;;;;4919930;29;20038;-60
2022/05/22 05:31:36;;;;;;;;;;;21.00;45.50;;;;;;4930888;28;19986;-60
2022/05/22 05:34:03;;;;;;;;;;;21.00;45.40;;;;;;4930445;29;19961;-60
2022/05/22 05:36:30;;;;;;;;;;;21.00;45.40;;;;;;4928252;29;19927;-59
2022/05/22 05:38:57;;;;;;;;;;;21.00;45.40;;;;;;4945900;28;19927;-59
2022/05/22 05:41:24;;;;;;;;;;;21.00;45.50;;;;;;4943749;28;19938;-60
2022/05/22 05:43:51;;;;;;;;;;;21.00;45.50;;;;;;4922770;28;19927;-55
2022/05/22 05:46:17;;;;;;;;;;;21.00;45.40;;;;;;4935009;28;19931;-60
2022/05/22 05:48:44;;;;;;;;;;;21.00;45.50;;;;;;4920091;28;19996;-59
2022/05/22 05:51:12;;;;;;;;;;;21.00;45.50;;;;;;4911607;28;20023;-60
2022/05/22 05:53:40;;;;;;;;;;;21.10;45.60;;;;;;4949621;28;20014;-59
2022/05/22 05:56:07;;;;;;;;;;;21.00;45.50;;;;;;4921237;28;19927;-58
2022/05/22 05:58:34;;;;;;;;;;;21.00;45.50;;;;;;4949259;28;19934;-59
2022/05/22 06:01:01;;;;;;;;;;;21.10;45.60;;;;;;4943472;28;19979;-58
2022/05/22 06:03:27;;;;;;;;;;;21.10;45.60;;;;;;4933150;28;20324;-58
2022/05/22 06:05:54;;;;;;;;;;;21.10;45.60;;;;;;4937103;28;20448;-58
2022/05/22 06:08:21;;;;;;;;;;;21.10;45.60;;;;;;4938822;28;19927;-60
2022/05/22 06:10:52;;;;;;;;;;;21.10;45.70;;;;;;4918817;28;19942;-58
2022/05/22 06:13:19;;;;;;;;;;;21.00;45.60;;;;;;4931527;28;19931;-58
2022/05/22 06:15:46;;;;;;;;;;;21.10;45.70;;;;;;4920312;28;19935;-58
2022/05/22 06:18:12;;;;;;;;;;;21.10;45.70;;;;;;4924266;28;19935;-59
2022/05/22 06:20:39;;;;;;;;;;;21.10;45.60;;;;;;4915799;28;19937;-58
2022/05/22 06:23:06;;;;;;;;;;;21.00;45.50;;;;;;4914938;28;20033;-59
2022/05/22 06:25:33;;;;;;;;;;;21.10;45.70;;;;;;4931602;28;20368;-59
2022/05/22 06:28:01;;;;;;;;;;;21.00;45.50;;;;;;4921819;28;19927;-56
2022/05/22 06:30:28;;;;;;;;;;;21.10;45.70;;;;;;4934273;28;19934;-57
2022/05/22 06:32:55;;;;;;;;;;;21.00;45.60;;;;;;4922956;28;19958;-59
2022/05/22 06:35:21;;;;;;;;;;;21.10;45.70;;;;;;4930816;28;19980;-58
2022/05/22 06:37:48;;;;;;;;;;;21.00;45.60;;;;;;4918765;28;19935;-61
2022/05/22 06:40:13;;;;;;;;;;;21.10;45.70;;;;;;4999285;28;19931;-60
2022/05/22 06:42:42;;;;;;;;;;;21.10;45.70;;;;;;4921414;28;20009;-58
2022/05/22 06:45:13;;;;;;;;;;;21.10;45.70;;;;;;4928568;28;19927;-60
2022/05/22 06:47:40;;;;;;;;;;;21.00;45.70;;;;;;4926899;28;19935;-58
2022/05/22 06:50:08;;;;;;;;;;;21.10;45.80;;;;;;4932820;28;20040;-60
2022/05/22 06:52:35;;;;;;;;;;;21.10;45.80;;;;;;4940276;28;20408;-59
2022/05/22 06:55:02;;;;;;;;;;;21.10;45.70;;;;;;4915323;28;19997;-58
2022/05/22 06:57:29;;;;;;;;;;;21.10;45.70;;;;;;4926152;28;19927;-60
2022/05/22 06:59:55;;;;;;;;;;;21.10;45.70;;;;;;4931626;29;19934;-59
2022/05/22 07:02:23;;;;;;;;;;;21.10;45.80;;;;;;4929109;28;19927;-58
2022/05/22 07:04:50;;;;;;;;;;;21.10;45.80;;;;;;4945595;28;19969;-58
2022/05/22 07:07:17;;;;;;;;;;;21.10;45.80;;;;;;4917261;29;19928;-58
2022/05/22 07:09:44;;;;;;;;;;;21.00;45.70;;;;;;4928587;28;20009;-58
2022/05/22 07:12:11;;;;;;;;;;;21.10;45.80;;;;;;4931138;28;19931;-59
2022/05/22 07:14:38;;;;;;;;;;;21.10;45.80;;;;;;4925149;29;19928;-58
2022/05/22 07:17:05;;;;;;;;;;;21.10;45.80;;;;;;4928674;29;19926;-58
2022/05/22 07:19:34;;;;;;;;;;;21.10;45.80;;;;;;4936051;29;19999;-58
2022/05/22 07:22:01;;;;;;;;;;;21.10;45.80;;;;;;4929804;28;19988;-60
2022/05/22 07:24:28;;;;;;;;;;;21.00;45.70;;;;;;4945638;28;20017;-59
2022/05/22 07:26:54;;;;;;;;;;;21.00;45.60;;;;;;4930410;28;20061;-58
2022/05/22 07:29:21;;;;;;;;;;;21.00;45.70;;;;;;4945581;28;20394;-59
2022/05/22 07:31:48;;;;;;;;;;;21.00;45.70;;;;;;4942560;28;20542;-58
2022/05/22 07:34:14;;;;;;;;;;;21.10;45.80;;;;;;4924990;28;19933;-58
2022/05/22 07:36:42;;;;;;;;;;;21.10;45.80;;;;;;4945579;28;20319;-58
2022/05/22 07:39:09;;;;;;;;;;;21.10;45.80;;;;;;4923444;28;19988;-59
2022/05/22 07:41:36;;;;;;;;;;;21.00;45.80;;;;;;4923544;28;20384;-58
2022/05/22 07:44:02;;;;;;;;;;;21.00;45.80;;;;;;4926787;28;19942;-57
2022/05/22 07:46:29;;;;;;;;;;;21.10;45.80;;;;;;4932530;28;20319;-58
2022/05/22 07:48:56;;;;;;;;;;;21.10;45.80;;;;;;4925419;28;19927;-55
2022/05/22 07:51:22;;;;;;;;;;;21.10;45.80;;;;;;4929412;28;20017;-58
2022/05/22 07:53:50;;;;;;;;;;;21.10;45.80;;;;;;4928285;28;20265;-60
2022/05/22 07:56:21;;;;;;;;;;;21.10;45.80;;;;;;4930042;28;19993;-55
2022/05/22 07:58:47;;;;;;;;;;;21.10;45.80;;;;;;4929578;28;19933;-57
2022/05/22 08:01:14;;;;;;;;;;;21.10;45.80;;;;;;4930098;28;19927;-57
2022/05/22 08:03:41;;;;;;;;;;;21.10;45.80;;;;;;4932718;29;19927;-57
2022/05/22 08:06:07;;;;;;;;;;;21.10;45.70;;;;;;4940960;28;20022;-56
2022/05/22 08:08:34;;;;;;;;;;;21.10;45.80;;;;;;4929183;29;19934;-58
2022/05/22 08:11:02;;;;;;;;;;;21.00;45.70;;;;;;4934792;29;20026;-58
2022/05/22 08:13:29;;;;;;;;;;;21.10;45.70;;;;;;4943275;28;19929;-58
2022/05/22 08:15:56;;;;;;;;;;;21.00;45.50;;;;;;4941264;28;19973;-59
2022/05/22 08:18:22;;;;;;;;;;;21.00;45.50;;;;;;4948207;28;20057;-59
2022/05/22 08:20:50;;;;;;;;;;;21.00;45.40;;;;;;4947269;28;19988;-56
2022/05/22 08:23:18;;;;;;;;;;;21.00;45.50;;;;;;4928411;28;19984;-55
2022/05/22 08:25:45;;;;;;;;;;;21.00;45.50;;;;;;4913927;29;19935;-57
2022/05/22 08:28:13;;;;;;;;;;;21.00;45.40;;;;;;4931371;29;19937;-58
2022/05/22 08:30:40;;;;;;;;;;;21.00;46.10;;;;;;4948103;28;19927;-57
2022/05/22 08:33:07;;;;;;;;;;;21.00;45.40;;;;;;4932686;29;19927;-59
2022/05/22 08:35:34;;;;;;;;;;;21.00;45.40;;;;;;4917637;29;19927;-57
2022/05/22 08:38:01;;;;;;;;;;;21.00;45.50;;;;;;4920480;28;19954;-56
2022/05/22 08:40:29;;;;;;;;;;;21.00;45.50;;;;;;4917208;29;19927;-56
2022/05/22 08:42:58;;;;;;;;;;;21.00;45.40;;;;;;4924216;28;19934;-55
2022/05/22 08:45:27;;;;;;;;;;;21.00;45.40;;;;;;4934929;28;19927;-57
2022/05/22 08:47:57;;;;;;;;;;;21.00;45.40;;;;;;4940323;28;19933;-56
2022/05/22 08:50:24;;;;;;;;;;;21.00;45.40;;;;;;4921408;28;20445;-59
2022/05/22 08:52:51;;;;;;;;;;;21.00;45.30;;;;;;4937605;28;19969;-54
2022/05/22 08:55:18;;;;;;;;;;;21.00;45.30;;;;;;4937346;28;19972;-55
2022/05/22 09:00:31;;;;;;;;;;;21.00;45.30;;;;;;4913022;28;19985;-53
2022/05/22 09:03:00;;;;;;;;;;;21.00;45.20;;;;;;4941376;28;19933;-54
2022/05/22 09:05:26;;;;;;;;;;;21.00;45.10;;;;;;4945896;28;20407;-59
2022/05/22 09:07:53;;;;;;;;;;;21.00;45.10;;;;;;4924062;29;19961;-60
2022/05/22 09:10:21;;;;;;;;;;;21.00;45.10;;;;;;4916793;28;20022;-58
2022/05/22 09:13:00;;;;;;;;;;;20.90;45.00;;;;;;4928786;28;20004;-59
2022/05/22 09:15:28;;;;;;;;;;;21.00;45.10;;;;;;4929712;28;19931;-60
2022/05/22 09:17:59;;;;;;;;;;;20.90;45.10;;;;;;4931005;29;20415;-60
2022/05/22 09:20:28;;;;;;;;;;;20.90;45.00;;;;;;4950698;28;19934;-58
2022/05/22 09:22:59;;;;;;;;;;;20.90;44.90;;;;;;4925900;29;19973;-58
2022/05/22 09:25:27;;;;;;;;;;;20.90;44.80;;;;;;4930007;29;20407;-57
2022/05/22 09:27:55;;;;;;;;;;;20.90;44.80;;;;;;4942901;28;20376;-59
2022/05/22 09:30:23;;;;;;;;;;;20.90;44.80;;;;;;4931245;28;20394;-58
2022/05/22 09:32:53;;;;;;;;;;;20.90;44.90;;;;;;4930967;28;19977;-59
2022/05/22 09:35:29;;;;;;;;;;;20.90;44.90;;;;;;4948997;28;19961;-58
2022/05/22 09:38:03;;;;;;;;;;;20.90;44.90;;;;;;4994503;28;19934;-57
2022/05/22 09:40:31;;;;;;;;;;;20.90;45.00;;;;;;4929980;28;20395;-59
2022/05/22 09:43:03;;;;;;;;;;;20.90;45.10;;;;;;4946628;28;19927;-59
2022/05/22 09:45:33;;;;;;;;;;;20.90;45.20;;;;;;4954876;28;19958;-59
2022/05/22 09:48:06;;;;;;;;;;;21.00;45.40;;;;;;4917098;29;20019;-57
2022/05/22 09:50:35;;;;;;;;;;;21.00;45.40;;;;;;4928450;28;19954;-58
2022/05/22 09:53:03;;;;;;;;;;;21.00;45.40;;;;;;4929461;29;19965;-59
2022/05/22 09:55:33;;;;;;;;;;;21.00;45.90;;;;;;4951607;28;19931;-59
2022/05/22 09:58:06;;;;;;;;;;;21.00;45.20;;;;;;4947733;28;19927;-58
2022/05/22 10:00:34;;;;;;;;;;;21.00;45.10;;;;;;4947657;28;20018;-58
2022/05/22 10:03:02;;;;;;;;;;;21.00;45.00;;;;;;4947648;28;19977;-58
2022/05/22 10:05:37;;;;;;;;;;;21.00;44.90;;;;;;4946222;28;20311;-58
2022/05/22 10:08:06;;;;;;;;;;;21.00;44.90;;;;;;4930962;28;20025;-58
2022/05/22 10:10:35;;;;;;;;;;;21.00;45.00;;;;;;4932394;29;20358;-56
2022/05/22 10:13:04;;;;;;;;;;;21.00;44.90;;;;;;4946711;28;20353;-60
2022/05/22 10:15:36;;;;;;;;;;;21.00;45.00;;;;;;4946682;28;19926;-57
2022/05/22 10:18:05;;;;;;;;;;;21.00;45.20;;;;;;4935249;28;19935;-59
2022/05/22 10:20:38;;;;;;;;;;;21.00;45.20;;;;;;4932155;28;19927;-60
2022/05/22 10:23:07;;;;;;;;;;;21.00;45.40;;;;;;4938151;28;19931;-56
2022/05/22 10:25:36;;;;;;;;;;;21.00;45.40;;;;;;4928162;28;19931;-56
2022/05/22 10:28:04;;;;;;;;;;;21.00;45.40;;;;;;4946011;28;19931;-58
2022/05/22 10:30:31;;;;;;;;;;;21.10;45.40;;;;;;4933007;28;19974;-57
2022/05/22 10:32:59;;;;;;;;;;;21.10;45.50;;;;;;4946570;29;20380;-57
2022/05/22 10:35:26;;;;;;;;;;;21.10;45.50;;;;;;4928787;28;19939;-58
2022/05/22 10:37:56;;;;;;;;;;;21.10;45.50;;;;;;4924541;29;20429;-58
2022/05/22 10:40:24;;;;;;;;;;;21.10;45.50;;;;;;4953295;28;20458;-59
2022/05/22 10:42:51;;;;;;;;;;;21.10;45.50;;;;;;4929945;28;19984;-59
2022/05/22 10:45:22;;;;;;;;;;;21.10;45.50;;;;;;5009059;28;19931;-58
2022/05/22 10:47:49;;;;;;;;;;;21.10;45.60;;;;;;4930152;28;19927;-57
2022/05/22 10:50:17;;;;;;;;;;;21.10;45.50;;;;;;4930455;28;20319;-59
2022/05/22 10:52:44;;;;;;;;;;;21.10;45.50;;;;;;4929575;29;19931;-58
2022/05/22 10:55:20;;;;;;;;;;;21.10;45.30;;;;;;4921648;28;20392;-58
2022/05/22 10:57:53;;;;;;;;;;;21.10;45.30;;;;;;4912246;28;19982;-58
2022/05/22 11:00:20;;;;;;;;;;;21.10;45.20;;;;;;4920824;29;19926;-57
2022/05/22 11:02:47;;;;;;;;;;;21.10;45.10;;;;;;4926554;29;20352;-58
2022/05/22 11:05:15;;;;;;;;;;;21.10;45.10;;;;;;4931196;28;20370;-59
2022/05/22 11:07:43;;;;;;;;;;;21.10;45.10;;;;;;4915312;28;19931;-60
2022/05/22 11:10:10;;;;;;;;;;;21.10;45.00;;;;;;4915270;28;20026;-55
2022/05/22 11:12:38;;;;;;;;;;;21.00;44.80;;;;;;4916004;28;19927;-58
2022/05/22 11:15:06;;;;;;;;;;;21.00;44.70;;;;;;4919726;28;19931;-58
2022/05/22 11:17:33;;;;;;;;;;;21.10;44.80;;;;;;4946081;28;19934;-58
2022/05/22 11:20:08;;;;;;;;;;;21.10;44.90;;;;;;4944880;28;19961;-58
2022/05/22 11:22:36;;;;;;;;;;;21.10;45.00;;;;;;4944678;28;19927;-60
2022/05/22 11:25:11;;;;;;;;;;;21.00;44.80;;;;;;4927472;29;19933;-59
2022/05/22 11:27:41;;;;;;;;;;;21.10;44.90;;;;;;4942742;28;20026;-59
2022/05/22 11:30:10;;;;;;;;;;;21.10;44.60;;;;;;4934085;28;19930;-60
2022/05/22 11:32:43;;;;;;;;;;;21.00;44.40;;;;;;4944380;28;19931;-59
2022/05/22 11:35:18;;;;;;;;;;;21.10;44.30;;;;;;4938792;28;19970;-59
2022/05/22 11:37:48;;;;;;;;;;;21.10;44.20;;;;;;4928009;29;20416;-58
2022/05/22 11:40:20;;;;;;;;;;;21.00;44.10;;;;;;4934016;28;20419;-58
2022/05/22 11:42:48;;;;;;;;;;;21.00;44.20;;;;;;4930089;29;19930;-60
2022/05/22 11:45:19;;;;;;;;;;;21.00;44.50;;;;;;4943985;28;19933;-58
2022/05/22 11:48:04;;;;;;;;;;;21.00;44.60;;;;;;4922713;28;19927;-59
2022/05/22 11:50:33;;;;;;;;;;;21.10;44.80;;;;;;4952653;28;20434;-58
2022/05/22 11:53:03;;;;;;;;;;;21.10;44.90;;;;;;4947550;28;20030;-58
2022/05/22 11:55:33;;;;;;;;;;;21.00;44.80;;;;;;4931807;28;19938;-59
2022/05/22 11:58:04;;;;;;;;;;;21.10;45.00;;;;;;4941641;28;19949;-59
2022/05/22 12:00:33;;;;;;;;;;;21.10;45.00;;;;;;4923195;28;19927;-59
2022/05/22 12:03:06;;;;;;;;;;;21.10;45.00;;;;;;4927480;28;19962;-58
2022/05/22 12:05:38;;;;;;;;;;;21.10;45.00;;;;;;4934510;28;19928;-58
2022/05/22 12:08:09;;;;;;;;;;;21.10;45.00;;;;;;4931585;28;19937;-58
2022/05/22 12:10:36;;;;;;;;;;;21.10;45.00;;;;;;4925836;28;20268;-57
2022/05/22 12:13:06;;;;;;;;;;;21.20;45.10;;;;;;4926642;28;19934;-59
2022/05/22 12:15:35;;;;;;;;;;;21.10;45.00;;;;;;4932710;28;19928;-59
2022/05/22 12:18:04;;;;;;;;;;;21.10;44.90;;;;;;4932690;29;19970;-58
2022/05/22 12:20:32;;;;;;;;;;;21.20;45.00;;;;;;4945504;28;19927;-58
2022/05/22 12:23:10;;;;;;;;;;;21.20;45.10;;;;;;4946589;28;19970;-57
2022/05/22 12:25:40;;;;;;;;;;;21.10;45.00;;;;;;4934098;29;19927;-58
2022/05/22 12:28:13;;;;;;;;;;;21.20;45.00;;;;;;4930805;28;19931;-59
2022/05/22 12:30:40;;;;;;;;;;;21.10;44.90;;;;;;4931607;28;19927;-56
2022/05/22 12:33:07;;;;;;;;;;;21.20;44.90;;;;;;4944529;28;19927;-59
2022/05/22 12:35:33;;;;;;;;;;;21.10;44.80;;;;;;4935343;28;19931;-58
2022/05/22 12:38:01;;;;;;;;;;;21.10;44.80;;;;;;4932500;29;19926;-60
2022/05/22 12:40:31;;;;;;;;;;;21.20;44.90;;;;;;4930865;28;19931;-59
2022/05/22 12:42:58;;;;;;;;;;;21.10;44.90;;;;;;4918652;29;19938;-58
2022/05/22 12:45:26;;;;;;;;;;;21.20;45.00;;;;;;4929739;29;19931;-58
2022/05/22 12:47:53;;;;;;;;;;;21.20;45.00;;;;;;4931266;28;19927;-58
2022/05/22 12:50:31;;;;;;;;;;;21.20;45.00;;;;;;4945487;28;19931;-59
2022/05/22 12:52:58;;;;;;;;;;;21.20;45.00;;;;;;4920055;28;20288;-56
2022/05/22 12:55:28;;;;;;;;;;;21.20;45.00;;;;;;4923553;29;19931;-59
2022/05/22 12:57:56;;;;;;;;;;;21.20;45.00;;;;;;4945656;28;20001;-59
2022/05/22 13:00:42;;;;;;;;;;;21.20;45.00;;;;;;4946458;28;19934;-59
2022/05/22 13:03:11;;;;;;;;;;;21.20;45.00;;;;;;4930604;28;19933;-59
2022/05/22 13:05:37;;;;;;;;;;;21.20;45.10;;;;;;4929161;29;20057;-57
2022/05/22 13:08:14;;;;;;;;;;;21.20;45.10;;;;;;4944007;28;19969;-59
2022/05/22 13:10:43;;;;;;;;;;;21.20;45.10;;;;;;4932021;28;19954;-58
2022/05/22 13:13:12;;;;;;;;;;;21.20;45.00;;;;;;4936394;28;19958;-57
2022/05/22 13:15:50;;;;;;;;;;;21.20;44.90;;;;;;4946919;28;20295;-59
2022/05/22 13:18:17;;;;;;;;;;;21.20;44.90;;;;;;4929336;28;20058;-60
2022/05/22 13:20:49;;;;;;;;;;;21.20;44.90;;;;;;4930710;28;21372;-59
2022/05/22 13:23:25;;;;;;;;;;;21.20;44.80;;;;;;4944131;28;20051;-57
2022/05/22 13:25:52;;;;;;;;;;;21.20;44.70;;;;;;4925820;28;19927;-58
2022/05/22 13:28:22;;;;;;;;;;;21.20;44.60;;;;;;4940776;28;19930;-58
2022/05/22 13:30:50;;;;;;;;;;;21.20;44.50;;;;;;4921464;28;19989;-58
2022/05/22 13:33:17;;;;;;;;;;;21.20;44.50;;;;;;4947261;28;19931;-58
2022/05/22 13:35:51;;;;;;;;;;;21.20;44.50;;;;;;4930544;28;19958;-59
2022/05/22 13:38:17;;;;;;;;;;;21.20;44.50;;;;;;4912087;29;19966;-58
2022/05/22 13:40:47;;;;;;;;;;;21.20;44.50;;;;;;4934113;29;19930;-57
2022/05/22 13:43:37;;;;;;;;;;;21.20;44.70;;;;;;4944635;28;20029;-59
2022/05/22 13:46:22;;;;;;;;;;;21.20;44.70;;;;;;4943919;28;19936;-59
2022/05/22 13:48:57;;;;;;;;;;;21.20;44.70;;;;;;4929158;29;19934;-58
2022/05/22 13:54:21;;;;;;;;;;;21.20;44.60;;;;;;4960350;28;19927;-58
2022/05/22 13:56:49;;;;;;;;;;;21.20;44.60;;;;;;4920100;28;19927;-58
2022/05/22 13:59:17;;;;;;;;;;;21.20;44.60;;;;;;4936937;28;19931;-58
2022/05/22 14:01:44;;;;;;;;;;;21.20;44.60;;;;;;4928886;28;19931;-60
2022/05/22 14:04:12;;;;;;;;;;;21.20;44.50;;;;;;4929130;29;19934;-59
2022/05/22 14:06:39;;;;;;;;;;;21.20;44.50;;;;;;4926344;28;19927;-59
2022/05/22 14:09:06;;;;;;;;;;;21.20;44.50;;;;;;4945740;28;19938;-59
2022/05/22 14:11:33;;;;;;;;;;;21.20;44.50;;;;;;4945504;28;20557;-59
2022/05/22 14:14:00;;;;;;;;;;;21.20;44.60;;;;;;4944969;28;20030;-58
2022/05/22 14:16:27;;;;;;;;;;;21.20;44.60;;;;;;4921417;28;20029;-60
2022/05/22 14:18:57;;;;;;;;;;;21.20;44.60;;;;;;4943054;28;19927;-60
2022/05/22 14:21:25;;;;;;;;;;;21.20;44.70;;;;;;4941170;28;20088;-59
2022/05/22 14:26:36;;;;;;;;;;;21.20;44.70;;;;;;4927365;28;19931;-57
2022/05/22 14:29:03;;;;;;;;;;;21.20;44.80;;;;;;4946480;28;19934;-60
2022/05/22 14:31:31;;;;;;;;;;;21.20;44.80;;;;;;4943862;28;19927;-58
2022/05/22 14:33:58;;;;;;;;;;;21.20;44.80;;;;;;4946878;28;20411;-55